sensor_id;sensor_type;location;lat;lon;timestamp;P1;durP1;ratioP1;P2;durP2;ratioP2
38089;SDS011;23904;52.322;10.232;2023-09-07T00:00:01;8.45;;;5.50;;
38089;SDS011;23904;52.322;10.232;2023-09-07T00:02:30;8.48;;;5.70;;
38089;SDS011;23904;52.322;10.232;2023-09-07T00:04:55;8.40;;;5.30;;
38089;SDS011;23904;52.322;10.232;2023-09-07T00:07:21;11.73;;;5.70;;
38089;SDS011;23904;52.322;10.232;2023-09-07T00:09:47;10.10;;;5.57;;
38089;SDS011;23904;52.322;10.232;2023-09-07T00:12:12;8.27;;;6.00;;
38089;SDS011;23904;52.322;10.232;2023-09-07T00:14:38;8.13;;;6.15;;
38089;SDS011;23904;52.322;10.232;2023-09-07T00:17:03;9.85;;;6.03;;
38089;SDS011;23904;52.322;10.232;2023-09-07T00:19:29;10.02;;;5.55;;
38089;SDS011;23904;52.322;10.232;2023-09-07T00:21:57;10.02;;;6.13;;
38089;SDS011;23904;52.322;10.232;2023-09-07T00:24:23;9.30;;;6.05;;
38089;SDS011;23904;52.322;10.232;2023-09-07T00:26:48;10.65;;;5.93;;
38089;SDS011;23904;52.322;10.232;2023-09-07T00:29:14;10.93;;;6.10;;
38089;SDS011;23904;52.322;10.232;2023-09-07T00:31:39;8.77;;;6.35;;
38089;SDS011;23904;52.322;10.232;2023-09-07T00:34:06;9.68;;;5.85;;
38089;SDS011;23904;52.322;10.232;2023-09-07T00:36:32;7.05;;;5.97;;
38089;SDS011;23904;52.322;10.232;2023-09-07T00:38:57;13.52;;;6.13;;
38089;SDS011;23904;52.322;10.232;2023-09-07T00:41:23;11.63;;;6.28;;
38089;SDS011;23904;52.322;10.232;2023-09-07T00:43:48;13.10;;;6.00;;
38089;SDS011;23904;52.322;10.232;2023-09-07T00:46:14;6.80;;;5.63;;
38089;SDS011;23904;52.322;10.232;2023-09-07T00:48:40;7.63;;;6.20;;
38089;SDS011;23904;52.322;10.232;2023-09-07T00:51:06;12.00;;;6.75;;
38089;SDS011;23904;52.322;10.232;2023-09-07T00:53:32;7.72;;;6.13;;
38089;SDS011;23904;52.322;10.232;2023-09-07T00:55:58;10.25;;;7.18;;
38089;SDS011;23904;52.322;10.232;2023-09-07T00:58:24;11.20;;;7.13;;
38089;SDS011;23904;52.322;10.232;2023-09-07T01:00:49;7.80;;;6.38;;
38089;SDS011;23904;52.322;10.232;2023-09-07T01:03:15;8.43;;;5.95;;
38089;SDS011;23904;52.322;10.232;2023-09-07T01:08:23;13.10;;;6.65;;
38089;SDS011;23904;52.322;10.232;2023-09-07T01:10:52;9.30;;;6.40;;
38089;SDS011;23904;52.322;10.232;2023-09-07T01:13:18;12.48;;;6.50;;
38089;SDS011;23904;52.322;10.232;2023-09-07T01:15:45;10.70;;;6.13;;
38089;SDS011;23904;52.322;10.232;2023-09-07T01:18:11;10.85;;;6.45;;
38089;SDS011;23904;52.322;10.232;2023-09-07T01:20:39;9.15;;;6.50;;
38089;SDS011;23904;52.322;10.232;2023-09-07T01:23:06;7.97;;;6.38;;
38089;SDS011;23904;52.322;10.232;2023-09-07T01:25:32;9.85;;;6.38;;
38089;SDS011;23904;52.322;10.232;2023-09-07T01:27:59;7.13;;;6.43;;
38089;SDS011;23904;52.322;10.232;2023-09-07T01:30:27;9.68;;;6.75;;
38089;SDS011;23904;52.322;10.232;2023-09-07T01:32:53;9.70;;;6.18;;
38089;SDS011;23904;52.322;10.232;2023-09-07T01:35:19;11.52;;;6.30;;
38089;SDS011;23904;52.322;10.232;2023-09-07T01:37:46;8.35;;;6.22;;
38089;SDS011;23904;52.322;10.232;2023-09-07T01:40:13;8.77;;;6.57;;
38089;SDS011;23904;52.322;10.232;2023-09-07T01:42:39;7.70;;;6.38;;
38089;SDS011;23904;52.322;10.232;2023-09-07T01:45:04;11.60;;;6.50;;
38089;SDS011;23904;52.322;10.232;2023-09-07T01:47:31;13.52;;;7.05;;
38089;SDS011;23904;52.322;10.232;2023-09-07T01:49:56;10.70;;;6.75;;
38089;SDS011;23904;52.322;10.232;2023-09-07T01:52:22;9.38;;;6.35;;
38089;SDS011;23904;52.322;10.232;2023-09-07T01:54:48;10.43;;;6.75;;
38089;SDS011;23904;52.322;10.232;2023-09-07T01:57:13;10.27;;;6.82;;
38089;SDS011;23904;52.322;10.232;2023-09-07T01:59:39;8.88;;;6.63;;
38089;SDS011;23904;52.322;10.232;2023-09-07T02:02:04;8.82;;;6.95;;
38089;SDS011;23904;52.322;10.232;2023-09-07T02:04:30;11.23;;;7.07;;
38089;SDS011;23904;52.322;10.232;2023-09-07T02:06:55;8.20;;;6.45;;
38089;SDS011;23904;52.322;10.232;2023-09-07T02:09:21;15.32;;;8.27;;
38089;SDS011;23904;52.322;10.232;2023-09-07T02:11:47;9.95;;;7.07;;
38089;SDS011;23904;52.322;10.232;2023-09-07T02:14:12;15.27;;;7.57;;
38089;SDS011;23904;52.322;10.232;2023-09-07T02:16:38;14.05;;;7.07;;
38089;SDS011;23904;52.322;10.232;2023-09-07T02:19:04;12.27;;;6.50;;
38089;SDS011;23904;52.322;10.232;2023-09-07T02:21:31;11.95;;;7.40;;
38089;SDS011;23904;52.322;10.232;2023-09-07T02:23:57;12.52;;;7.45;;
38089;SDS011;23904;52.322;10.232;2023-09-07T02:26:23;10.43;;;6.55;;
38089;SDS011;23904;52.322;10.232;2023-09-07T02:28:49;12.88;;;7.43;;
38089;SDS011;23904;52.322;10.232;2023-09-07T02:31:14;13.38;;;7.28;;
38089;SDS011;23904;52.322;10.232;2023-09-07T02:33:40;9.35;;;6.78;;
38089;SDS011;23904;52.322;10.232;2023-09-07T02:36:05;10.50;;;6.90;;
38089;SDS011;23904;52.322;10.232;2023-09-07T02:38:31;11.18;;;6.25;;
38089;SDS011;23904;52.322;10.232;2023-09-07T02:40:57;12.10;;;7.60;;
38089;SDS011;23904;52.322;10.232;2023-09-07T02:43:22;10.18;;;7.93;;
38089;SDS011;23904;52.322;10.232;2023-09-07T02:45:48;9.23;;;6.80;;
38089;SDS011;23904;52.322;10.232;2023-09-07T02:48:15;10.20;;;6.93;;
38089;SDS011;23904;52.322;10.232;2023-09-07T02:50:41;9.65;;;7.38;;
38089;SDS011;23904;52.322;10.232;2023-09-07T02:53:07;11.63;;;7.68;;
38089;SDS011;23904;52.322;10.232;2023-09-07T02:55:33;9.07;;;6.97;;
38089;SDS011;23904;52.322;10.232;2023-09-07T02:58:01;8.75;;;7.22;;
38089;SDS011;23904;52.322;10.232;2023-09-07T03:00:28;9.38;;;7.30;;
38089;SDS011;23904;52.322;10.232;2023-09-07T03:02:54;10.30;;;7.07;;
38089;SDS011;23904;52.322;10.232;2023-09-07T03:05:19;9.73;;;7.88;;
38089;SDS011;23904;52.322;10.232;2023-09-07T03:07:45;7.93;;;6.82;;
38089;SDS011;23904;52.322;10.232;2023-09-07T03:10:12;13.07;;;8.25;;
38089;SDS011;23904;52.322;10.232;2023-09-07T03:12:38;15.95;;;8.18;;
38089;SDS011;23904;52.322;10.232;2023-09-07T03:15:04;10.27;;;7.90;;
38089;SDS011;23904;52.322;10.232;2023-09-07T03:17:31;9.05;;;7.60;;
38089;SDS011;23904;52.322;10.232;2023-09-07T03:19:56;13.35;;;8.45;;
38089;SDS011;23904;52.322;10.232;2023-09-07T03:22:22;12.60;;;7.15;;
38089;SDS011;23904;52.322;10.232;2023-09-07T03:24:51;12.18;;;8.05;;
38089;SDS011;23904;52.322;10.232;2023-09-07T03:27:17;10.02;;;7.43;;
38089;SDS011;23904;52.322;10.232;2023-09-07T03:29:44;10.77;;;7.88;;
38089;SDS011;23904;52.322;10.232;2023-09-07T03:32:09;9.07;;;7.28;;
38089;SDS011;23904;52.322;10.232;2023-09-07T03:34:35;13.65;;;8.45;;
38089;SDS011;23904;52.322;10.232;2023-09-07T03:37:01;12.23;;;7.30;;
38089;SDS011;23904;52.322;10.232;2023-09-07T03:39:27;12.68;;;8.45;;
38089;SDS011;23904;52.322;10.232;2023-09-07T03:41:53;10.73;;;7.30;;
38089;SDS011;23904;52.322;10.232;2023-09-07T03:44:19;11.80;;;8.27;;
38089;SDS011;23904;52.322;10.232;2023-09-07T03:46:44;13.43;;;8.85;;
38089;SDS011;23904;52.322;10.232;2023-09-07T03:49:10;10.85;;;7.75;;
38089;SDS011;23904;52.322;10.232;2023-09-07T03:51:35;9.95;;;8.20;;
38089;SDS011;23904;52.322;10.232;2023-09-07T03:54:01;9.43;;;7.47;;
38089;SDS011;23904;52.322;10.232;2023-09-07T03:56:26;11.07;;;7.82;;
38089;SDS011;23904;52.322;10.232;2023-09-07T03:58:52;11.38;;;8.15;;
38089;SDS011;23904;52.322;10.232;2023-09-07T04:01:17;13.18;;;8.85;;
38089;SDS011;23904;52.322;10.232;2023-09-07T04:03:43;11.32;;;8.00;;
38089;SDS011;23904;52.322;10.232;2023-09-07T04:06:09;22.63;;;9.00;;
38089;SDS011;23904;52.322;10.232;2023-09-07T04:08:34;10.95;;;8.65;;
38089;SDS011;23904;52.322;10.232;2023-09-07T04:11:04;14.10;;;8.77;;
38089;SDS011;23904;52.322;10.232;2023-09-07T04:13:31;13.32;;;8.52;;
38089;SDS011;23904;52.322;10.232;2023-09-07T04:15:57;10.98;;;8.15;;
38089;SDS011;23904;52.322;10.232;2023-09-07T04:18:23;14.10;;;8.77;;
38089;SDS011;23904;52.322;10.232;2023-09-07T04:20:48;11.48;;;8.85;;
38089;SDS011;23904;52.322;10.232;2023-09-07T04:23:14;12.15;;;8.38;;
38089;SDS011;23904;52.322;10.232;2023-09-07T04:25:40;10.35;;;8.70;;
38089;SDS011;23904;52.322;10.232;2023-09-07T04:28:06;12.98;;;7.90;;
38089;SDS011;23904;52.322;10.232;2023-09-07T04:30:38;13.60;;;8.55;;
38089;SDS011;23904;52.322;10.232;2023-09-07T04:33:06;11.00;;;9.00;;
38089;SDS011;23904;52.322;10.232;2023-09-07T04:35:32;14.27;;;8.70;;
38089;SDS011;23904;52.322;10.232;2023-09-07T04:37:58;12.38;;;9.40;;
38089;SDS011;23904;52.322;10.232;2023-09-07T04:40:24;20.83;;;10.07;;
38089;SDS011;23904;52.322;10.232;2023-09-07T04:42:50;21.88;;;11.40;;
38089;SDS011;23904;52.322;10.232;2023-09-07T04:45:16;12.32;;;9.18;;
38089;SDS011;23904;52.322;10.232;2023-09-07T04:47:42;16.25;;;9.18;;
38089;SDS011;23904;52.322;10.232;2023-09-07T04:50:08;11.48;;;8.80;;
38089;SDS011;23904;52.322;10.232;2023-09-07T04:52:34;16.42;;;10.63;;
38089;SDS011;23904;52.322;10.232;2023-09-07T04:55:01;14.55;;;9.52;;
38089;SDS011;23904;52.322;10.232;2023-09-07T04:57:27;17.10;;;9.98;;
38089;SDS011;23904;52.322;10.232;2023-09-07T04:59:52;13.43;;;11.15;;
38089;SDS011;23904;52.322;10.232;2023-09-07T05:02:18;13.70;;;9.43;;
38089;SDS011;23904;52.322;10.232;2023-09-07T05:04:44;12.63;;;9.77;;
38089;SDS011;23904;52.322;10.232;2023-09-07T05:07:10;14.73;;;10.95;;
38089;SDS011;23904;52.322;10.232;2023-09-07T05:09:35;12.88;;;10.55;;
38089;SDS011;23904;52.322;10.232;2023-09-07T05:12:01;14.38;;;9.73;;
38089;SDS011;23904;52.322;10.232;2023-09-07T05:14:26;11.77;;;9.52;;
38089;SDS011;23904;52.322;10.232;2023-09-07T05:16:52;22.13;;;11.57;;
38089;SDS011;23904;52.322;10.232;2023-09-07T05:19:18;12.48;;;9.90;;
38089;SDS011;23904;52.322;10.232;2023-09-07T05:21:43;17.98;;;10.10;;
38089;SDS011;23904;52.322;10.232;2023-09-07T05:24:09;13.80;;;9.25;;
38089;SDS011;23904;52.322;10.232;2023-09-07T05:26:35;14.40;;;8.95;;
38089;SDS011;23904;52.322;10.232;2023-09-07T05:29:00;12.68;;;9.80;;
38089;SDS011;23904;52.322;10.232;2023-09-07T05:31:26;14.38;;;9.82;;
38089;SDS011;23904;52.322;10.232;2023-09-07T05:33:51;14.32;;;10.20;;
38089;SDS011;23904;52.322;10.232;2023-09-07T05:36:17;12.68;;;10.35;;
38089;SDS011;23904;52.322;10.232;2023-09-07T05:38:43;12.50;;;10.02;;
38089;SDS011;23904;52.322;10.232;2023-09-07T05:41:09;13.75;;;9.95;;
38089;SDS011;23904;52.322;10.232;2023-09-07T05:43:34;15.32;;;10.48;;
38089;SDS011;23904;52.322;10.232;2023-09-07T05:46:00;12.68;;;9.88;;
38089;SDS011;23904;52.322;10.232;2023-09-07T05:48:26;12.25;;;9.55;;
38089;SDS011;23904;52.322;10.232;2023-09-07T05:50:51;14.43;;;11.05;;
38089;SDS011;23904;52.322;10.232;2023-09-07T05:53:18;13.05;;;10.50;;
38089;SDS011;23904;52.322;10.232;2023-09-07T05:55:45;13.65;;;10.35;;
38089;SDS011;23904;52.322;10.232;2023-09-07T05:58:11;14.15;;;10.05;;
38089;SDS011;23904;52.322;10.232;2023-09-07T06:00:37;13.35;;;10.10;;
38089;SDS011;23904;52.322;10.232;2023-09-07T06:03:04;14.90;;;10.75;;
38089;SDS011;23904;52.322;10.232;2023-09-07T06:05:33;16.02;;;10.88;;
38089;SDS011;23904;52.322;10.232;2023-09-07T06:08:00;11.40;;;10.18;;
38089;SDS011;23904;52.322;10.232;2023-09-07T06:10:27;12.38;;;10.82;;
38089;SDS011;23904;52.322;10.232;2023-09-07T06:12:54;14.32;;;9.68;;
38089;SDS011;23904;52.322;10.232;2023-09-07T06:15:20;12.52;;;10.52;;
38089;SDS011;23904;52.322;10.232;2023-09-07T06:17:46;15.27;;;10.40;;
38089;SDS011;23904;52.322;10.232;2023-09-07T06:20:12;14.38;;;9.90;;
38089;SDS011;23904;52.322;10.232;2023-09-07T06:22:37;14.77;;;9.50;;
38089;SDS011;23904;52.322;10.232;2023-09-07T06:25:03;12.93;;;9.45;;
38089;SDS011;23904;52.322;10.232;2023-09-07T06:27:29;10.75;;;9.38;;
38089;SDS011;23904;52.322;10.232;2023-09-07T06:29:54;14.05;;;8.40;;
38089;SDS011;23904;52.322;10.232;2023-09-07T06:32:20;13.65;;;9.68;;
38089;SDS011;23904;52.322;10.232;2023-09-07T06:34:45;11.57;;;9.18;;
38089;SDS011;23904;52.322;10.232;2023-09-07T06:37:12;14.52;;;10.15;;
38089;SDS011;23904;52.322;10.232;2023-09-07T06:39:38;11.52;;;9.32;;
38089;SDS011;23904;52.322;10.232;2023-09-07T06:42:03;12.98;;;9.45;;
38089;SDS011;23904;52.322;10.232;2023-09-07T06:44:29;11.10;;;8.95;;
38089;SDS011;23904;52.322;10.232;2023-09-07T06:46:55;13.52;;;9.73;;
38089;SDS011;23904;52.322;10.232;2023-09-07T06:49:21;13.52;;;10.15;;
38089;SDS011;23904;52.322;10.232;2023-09-07T06:51:47;13.75;;;9.18;;
38089;SDS011;23904;52.322;10.232;2023-09-07T06:54:12;15.20;;;9.70;;
38089;SDS011;23904;52.322;10.232;2023-09-07T06:56:38;11.18;;;9.30;;
38089;SDS011;23904;52.322;10.232;2023-09-07T06:59:03;11.77;;;8.60;;
38089;SDS011;23904;52.322;10.232;2023-09-07T07:01:29;18.02;;;9.70;;
38089;SDS011;23904;52.322;10.232;2023-09-07T07:03:55;11.15;;;9.35;;
38089;SDS011;23904;52.322;10.232;2023-09-07T07:06:21;16.67;;;9.52;;
38089;SDS011;23904;52.322;10.232;2023-09-07T07:08:48;13.73;;;8.88;;
38089;SDS011;23904;52.322;10.232;2023-09-07T07:11:13;12.93;;;9.00;;
38089;SDS011;23904;52.322;10.232;2023-09-07T07:13:39;12.50;;;8.88;;
38089;SDS011;23904;52.322;10.232;2023-09-07T07:16:05;11.90;;;8.70;;
38089;SDS011;23904;52.322;10.232;2023-09-07T07:18:31;13.73;;;8.10;;
38089;SDS011;23904;52.322;10.232;2023-09-07T07:20:57;11.75;;;8.80;;
38089;SDS011;23904;52.322;10.232;2023-09-07T07:23:22;17.88;;;9.35;;
38089;SDS011;23904;52.322;10.232;2023-09-07T07:25:48;11.77;;;8.95;;
38089;SDS011;23904;52.322;10.232;2023-09-07T07:28:13;14.88;;;8.25;;
38089;SDS011;23904;52.322;10.232;2023-09-07T07:30:39;14.95;;;8.30;;
38089;SDS011;23904;52.322;10.232;2023-09-07T07:33:05;13.20;;;9.35;;
38089;SDS011;23904;52.322;10.232;2023-09-07T07:35:32;12.65;;;7.55;;
38089;SDS011;23904;52.322;10.232;2023-09-07T07:37:59;11.95;;;8.38;;
38089;SDS011;23904;52.322;10.232;2023-09-07T07:40:25;13.90;;;8.52;;
38089;SDS011;23904;52.322;10.232;2023-09-07T07:42:51;14.80;;;9.63;;
38089;SDS011;23904;52.322;10.232;2023-09-07T07:45:18;16.45;;;9.43;;
38089;SDS011;23904;52.322;10.232;2023-09-07T07:47:45;11.43;;;7.75;;
38089;SDS011;23904;52.322;10.232;2023-09-07T07:50:11;13.43;;;7.50;;
38089;SDS011;23904;52.322;10.232;2023-09-07T07:52:37;21.05;;;8.70;;
38089;SDS011;23904;52.322;10.232;2023-09-07T07:55:02;13.27;;;8.90;;
38089;SDS011;23904;52.322;10.232;2023-09-07T07:57:28;13.02;;;8.55;;
38089;SDS011;23904;52.322;10.232;2023-09-07T07:59:55;10.43;;;7.10;;
38089;SDS011;23904;52.322;10.232;2023-09-07T08:02:21;11.80;;;7.95;;
38089;SDS011;23904;52.322;10.232;2023-09-07T08:04:47;8.63;;;6.88;;
38089;SDS011;23904;52.322;10.232;2023-09-07T08:07:12;11.35;;;7.78;;
38089;SDS011;23904;52.322;10.232;2023-09-07T08:09:38;11.65;;;7.93;;
38089;SDS011;23904;52.322;10.232;2023-09-07T08:12:04;10.20;;;7.15;;
38089;SDS011;23904;52.322;10.232;2023-09-07T08:14:31;19.65;;;6.57;;
38089;SDS011;23904;52.322;10.232;2023-09-07T08:16:57;11.75;;;6.47;;
38089;SDS011;23904;52.322;10.232;2023-09-07T08:19:23;12.93;;;6.68;;
38089;SDS011;23904;52.322;10.232;2023-09-07T08:21:49;9.23;;;5.80;;
38089;SDS011;23904;52.322;10.232;2023-09-07T08:24:15;9.10;;;5.43;;
38089;SDS011;23904;52.322;10.232;2023-09-07T08:26:41;8.65;;;6.00;;
38089;SDS011;23904;52.322;10.232;2023-09-07T08:29:08;9.95;;;5.30;;
38089;SDS011;23904;52.322;10.232;2023-09-07T08:31:37;8.27;;;5.15;;
38089;SDS011;23904;52.322;10.232;2023-09-07T08:34:04;6.60;;;5.32;;
38089;SDS011;23904;52.322;10.232;2023-09-07T08:36:34;9.77;;;5.53;;
38089;SDS011;23904;52.322;10.232;2023-09-07T08:39:06;7.88;;;5.50;;
38089;SDS011;23904;52.322;10.232;2023-09-07T08:41:37;10.10;;;4.90;;
38089;SDS011;23904;52.322;10.232;2023-09-07T08:44:08;10.43;;;4.80;;
38089;SDS011;23904;52.322;10.232;2023-09-07T08:46:36;8.85;;;4.63;;
38089;SDS011;23904;52.322;10.232;2023-09-07T08:49:03;9.93;;;5.15;;
38089;SDS011;23904;52.322;10.232;2023-09-07T08:51:29;8.15;;;4.25;;
38089;SDS011;23904;52.322;10.232;2023-09-07T08:53:56;7.82;;;4.18;;
38089;SDS011;23904;52.322;10.232;2023-09-07T08:56:25;12.40;;;4.53;;
38089;SDS011;23904;52.322;10.232;2023-09-07T08:58:51;7.10;;;4.53;;
38089;SDS011;23904;52.322;10.232;2023-09-07T09:01:17;11.70;;;5.43;;
38089;SDS011;23904;52.322;10.232;2023-09-07T09:03:43;15.48;;;4.57;;
38089;SDS011;23904;52.322;10.232;2023-09-07T09:06:10;8.52;;;4.57;;
38089;SDS011;23904;52.322;10.232;2023-09-07T09:08:50;6.90;;;4.70;;
38089;SDS011;23904;52.322;10.232;2023-09-07T09:11:21;6.35;;;4.10;;
38089;SDS011;23904;52.322;10.232;2023-09-07T09:13:48;7.80;;;5.28;;
38089;SDS011;23904;52.322;10.232;2023-09-07T09:16:17;7.82;;;4.30;;
38089;SDS011;23904;52.322;10.232;2023-09-07T09:18:47;8.13;;;4.22;;
38089;SDS011;23904;52.322;10.232;2023-09-07T09:21:21;7.65;;;4.57;;
38089;SDS011;23904;52.322;10.232;2023-09-07T09:23:51;6.80;;;4.25;;
38089;SDS011;23904;52.322;10.232;2023-09-07T09:26:20;8.00;;;5.78;;
38089;SDS011;23904;52.322;10.232;2023-09-07T09:28:46;9.25;;;4.75;;
38089;SDS011;23904;52.322;10.232;2023-09-07T09:31:12;8.05;;;4.28;;
38089;SDS011;23904;52.322;10.232;2023-09-07T09:33:39;5.47;;;4.50;;
38089;SDS011;23904;52.322;10.232;2023-09-07T09:36:07;12.98;;;5.18;;
38089;SDS011;23904;52.322;10.232;2023-09-07T09:38:33;6.82;;;4.20;;
38089;SDS011;23904;52.322;10.232;2023-09-07T09:41:00;5.85;;;5.20;;
38089;SDS011;23904;52.322;10.232;2023-09-07T09:43:28;9.27;;;5.18;;
38089;SDS011;23904;52.322;10.232;2023-09-07T09:45:54;9.52;;;4.55;;
38089;SDS011;23904;52.322;10.232;2023-09-07T09:48:20;6.18;;;4.63;;
38089;SDS011;23904;52.322;10.232;2023-09-07T09:50:47;6.75;;;4.80;;
38089;SDS011;23904;52.322;10.232;2023-09-07T09:53:17;5.45;;;4.38;;
38089;SDS011;23904;52.322;10.232;2023-09-07T09:55:48;5.43;;;4.50;;
38089;SDS011;23904;52.322;10.232;2023-09-07T09:58:15;8.75;;;4.90;;
38089;SDS011;23904;52.322;10.232;2023-09-07T10:00:51;8.85;;;4.40;;
38089;SDS011;23904;52.322;10.232;2023-09-07T10:03:28;10.70;;;4.50;;
38089;SDS011;23904;52.322;10.232;2023-09-07T10:06:11;7.40;;;4.55;;
38089;SDS011;23904;52.322;10.232;2023-09-07T10:11:35;10.88;;;4.80;;
38089;SDS011;23904;52.322;10.232;2023-09-07T10:14:03;12.13;;;4.95;;
38089;SDS011;23904;52.322;10.232;2023-09-07T10:16:44;10.35;;;4.55;;
38089;SDS011;23904;52.322;10.232;2023-09-07T10:21:41;9.10;;;4.50;;
38089;SDS011;23904;52.322;10.232;2023-09-07T10:24:07;7.05;;;4.53;;
38089;SDS011;23904;52.322;10.232;2023-09-07T10:26:33;8.80;;;4.20;;
38089;SDS011;23904;52.322;10.232;2023-09-07T10:28:59;10.57;;;4.80;;
38089;SDS011;23904;52.322;10.232;2023-09-07T10:31:28;5.22;;;4.22;;
38089;SDS011;23904;52.322;10.232;2023-09-07T10:34:07;7.03;;;4.03;;
38089;SDS011;23904;52.322;10.232;2023-09-07T10:36:37;8.50;;;4.50;;
38089;SDS011;23904;52.322;10.232;2023-09-07T10:39:02;6.60;;;4.03;;
38089;SDS011;23904;52.322;10.232;2023-09-07T10:41:39;8.85;;;4.40;;
38089;SDS011;23904;52.322;10.232;2023-09-07T10:44:07;8.05;;;4.10;;
38089;SDS011;23904;52.322;10.232;2023-09-07T10:46:35;6.97;;;4.13;;
38089;SDS011;23904;52.322;10.232;2023-09-07T10:49:03;8.32;;;4.13;;
38089;SDS011;23904;52.322;10.232;2023-09-07T10:51:32;7.20;;;4.00;;
38089;SDS011;23904;52.322;10.232;2023-09-07T10:53:57;6.82;;;4.40;;
38089;SDS011;23904;52.322;10.232;2023-09-07T10:56:26;8.52;;;4.45;;
38089;SDS011;23904;52.322;10.232;2023-09-07T10:58:53;9.90;;;4.38;;
38089;SDS011;23904;52.322;10.232;2023-09-07T11:01:20;8.77;;;4.47;;
38089;SDS011;23904;52.322;10.232;2023-09-07T11:03:45;9.20;;;4.25;;
38089;SDS011;23904;52.322;10.232;2023-09-07T11:06:13;4.85;;;4.05;;
38089;SDS011;23904;52.322;10.232;2023-09-07T11:08:47;5.28;;;3.70;;
38089;SDS011;23904;52.322;10.232;2023-09-07T11:11:12;5.28;;;4.03;;
38089;SDS011;23904;52.322;10.232;2023-09-07T11:13:38;5.65;;;4.07;;
38089;SDS011;23904;52.322;10.232;2023-09-07T11:16:06;8.43;;;4.22;;
38089;SDS011;23904;52.322;10.232;2023-09-07T11:18:34;6.55;;;4.10;;
38089;SDS011;23904;52.322;10.232;2023-09-07T11:21:03;6.55;;;3.88;;
38089;SDS011;23904;52.322;10.232;2023-09-07T11:23:29;4.57;;;4.18;;
38089;SDS011;23904;52.322;10.232;2023-09-07T11:26:03;9.63;;;4.22;;
38089;SDS011;23904;52.322;10.232;2023-09-07T11:28:30;8.15;;;3.95;;
38089;SDS011;23904;52.322;10.232;2023-09-07T11:30:56;7.85;;;4.15;;
38089;SDS011;23904;52.322;10.232;2023-09-07T11:33:24;7.65;;;4.45;;
38089;SDS011;23904;52.322;10.232;2023-09-07T11:35:51;5.13;;;3.70;;
38089;SDS011;23904;52.322;10.232;2023-09-07T11:38:19;6.65;;;3.88;;
38089;SDS011;23904;52.322;10.232;2023-09-07T11:40:45;9.38;;;4.13;;
38089;SDS011;23904;52.322;10.232;2023-09-07T11:43:11;7.13;;;3.65;;
38089;SDS011;23904;52.322;10.232;2023-09-07T11:45:39;4.05;;;3.13;;
38089;SDS011;23904;52.322;10.232;2023-09-07T11:48:06;4.15;;;3.55;;
38089;SDS011;23904;52.322;10.232;2023-09-07T11:50:34;4.43;;;3.70;;
38089;SDS011;23904;52.322;10.232;2023-09-07T11:53:00;5.80;;;3.70;;
38089;SDS011;23904;52.322;10.232;2023-09-07T11:55:26;7.57;;;4.00;;
38089;SDS011;23904;52.322;10.232;2023-09-07T11:57:52;5.20;;;3.75;;
38089;SDS011;23904;52.322;10.232;2023-09-07T12:00:18;6.00;;;3.95;;
38089;SDS011;23904;52.322;10.232;2023-09-07T12:02:44;5.63;;;3.90;;
38089;SDS011;23904;52.322;10.232;2023-09-07T12:05:10;8.68;;;3.95;;
38089;SDS011;23904;52.322;10.232;2023-09-07T12:07:39;5.03;;;3.75;;
38089;SDS011;23904;52.322;10.232;2023-09-07T12:10:05;6.53;;;4.22;;
38089;SDS011;23904;52.322;10.232;2023-09-07T12:12:35;5.78;;;3.50;;
38089;SDS011;23904;52.322;10.232;2023-09-07T12:15:08;8.82;;;4.05;;
38089;SDS011;23904;52.322;10.232;2023-09-07T12:17:36;7.68;;;4.43;;
38089;SDS011;23904;52.322;10.232;2023-09-07T12:20:02;8.70;;;3.95;;
38089;SDS011;23904;52.322;10.232;2023-09-07T12:22:35;5.97;;;3.80;;
38089;SDS011;23904;52.322;10.232;2023-09-07T12:25:06;6.15;;;4.80;;
38089;SDS011;23904;52.322;10.232;2023-09-07T12:27:36;8.10;;;3.88;;
38089;SDS011;23904;52.322;10.232;2023-09-07T12:30:02;10.25;;;6.55;;
38089;SDS011;23904;52.322;10.232;2023-09-07T12:32:31;13.13;;;5.10;;
38089;SDS011;23904;52.322;10.232;2023-09-07T12:34:57;7.47;;;4.53;;
38089;SDS011;23904;52.322;10.232;2023-09-07T12:37:24;23.80;;;5.45;;
38089;SDS011;23904;52.322;10.232;2023-09-07T12:39:49;5.97;;;4.50;;
38089;SDS011;23904;52.322;10.232;2023-09-07T12:42:16;7.75;;;4.95;;
38089;SDS011;23904;52.322;10.232;2023-09-07T12:44:43;9.00;;;5.13;;
38089;SDS011;23904;52.322;10.232;2023-09-07T12:47:09;7.13;;;5.13;;
38089;SDS011;23904;52.322;10.232;2023-09-07T12:49:34;6.72;;;4.65;;
38089;SDS011;23904;52.322;10.232;2023-09-07T12:52:00;6.45;;;4.65;;
38089;SDS011;23904;52.322;10.232;2023-09-07T12:54:27;7.28;;;4.40;;
38089;SDS011;23904;52.322;10.232;2023-09-07T12:56:53;13.05;;;6.35;;
38089;SDS011;23904;52.322;10.232;2023-09-07T12:59:19;10.95;;;5.03;;
38089;SDS011;23904;52.322;10.232;2023-09-07T13:01:44;7.78;;;4.65;;
38089;SDS011;23904;52.322;10.232;2023-09-07T13:04:10;11.38;;;5.15;;
38089;SDS011;23904;52.322;10.232;2023-09-07T13:06:36;7.22;;;5.05;;
38089;SDS011;23904;52.322;10.232;2023-09-07T13:09:02;8.07;;;4.70;;
38089;SDS011;23904;52.322;10.232;2023-09-07T13:11:29;8.00;;;5.20;;
38089;SDS011;23904;52.322;10.232;2023-09-07T13:13:55;10.32;;;5.22;;
38089;SDS011;23904;52.322;10.232;2023-09-07T13:16:21;8.95;;;5.20;;
38089;SDS011;23904;52.322;10.232;2023-09-07T13:18:46;6.68;;;4.63;;
38089;SDS011;23904;52.322;10.232;2023-09-07T13:21:12;10.05;;;4.65;;
38089;SDS011;23904;52.322;10.232;2023-09-07T13:23:37;11.50;;;4.93;;
38089;SDS011;23904;52.322;10.232;2023-09-07T13:26:03;9.43;;;5.18;;
38089;SDS011;23904;52.322;10.232;2023-09-07T13:28:28;12.23;;;4.72;;
38089;SDS011;23904;52.322;10.232;2023-09-07T13:30:54;6.38;;;4.70;;
38089;SDS011;23904;52.322;10.232;2023-09-07T13:33:19;6.30;;;4.47;;
38089;SDS011;23904;52.322;10.232;2023-09-07T13:35:45;7.53;;;4.20;;
38089;SDS011;23904;52.322;10.232;2023-09-07T13:38:11;6.57;;;4.70;;
38089;SDS011;23904;52.322;10.232;2023-09-07T13:40:37;7.45;;;4.13;;
38089;SDS011;23904;52.322;10.232;2023-09-07T13:43:02;13.82;;;5.40;;
38089;SDS011;23904;52.322;10.232;2023-09-07T13:45:28;8.30;;;5.15;;
38089;SDS011;23904;52.322;10.232;2023-09-07T13:47:54;8.55;;;4.40;;
38089;SDS011;23904;52.322;10.232;2023-09-07T13:50:21;6.85;;;3.95;;
38089;SDS011;23904;52.322;10.232;2023-09-07T13:52:47;6.88;;;4.53;;
38089;SDS011;23904;52.322;10.232;2023-09-07T13:55:13;12.30;;;5.10;;
38089;SDS011;23904;52.322;10.232;2023-09-07T13:57:39;8.50;;;6.35;;
38089;SDS011;23904;52.322;10.232;2023-09-07T14:00:04;8.30;;;4.60;;
38089;SDS011;23904;52.322;10.232;2023-09-07T14:02:31;9.25;;;4.70;;
38089;SDS011;23904;52.322;10.232;2023-09-07T14:04:57;6.78;;;4.20;;
38089;SDS011;23904;52.322;10.232;2023-09-07T14:07:24;10.93;;;5.28;;
38089;SDS011;23904;52.322;10.232;2023-09-07T14:09:54;9.85;;;4.53;;
38089;SDS011;23904;52.322;10.232;2023-09-07T14:12:20;16.63;;;8.35;;
38089;SDS011;23904;52.322;10.232;2023-09-07T14:14:46;9.80;;;4.93;;
38089;SDS011;23904;52.322;10.232;2023-09-07T14:17:13;7.72;;;4.50;;
38089;SDS011;23904;52.322;10.232;2023-09-07T14:19:38;11.55;;;5.75;;
38089;SDS011;23904;52.322;10.232;2023-09-07T14:22:04;10.45;;;4.05;;
38089;SDS011;23904;52.322;10.232;2023-09-07T14:24:29;13.50;;;4.40;;
38089;SDS011;23904;52.322;10.232;2023-09-07T14:26:55;7.50;;;3.97;;
38089;SDS011;23904;52.322;10.232;2023-09-07T14:29:20;7.22;;;4.18;;